METAR Data
IDs: Format: Raw Decoded Include TAF

Data at: 0838 UTC 21 Oct 2018

METAR for:KLHQ (Lancaster/Fairfield, OH, US)
Text:KLHQ 210753Z AUTO 32010KT 10SM OVC035 02/M04 A3021 RMK AO2 SLP234 T00221039 $
Temperature: 2.2°C ( 36°F)
Dewpoint: -3.9°C ( 25°F) [RH = 64%]
Pressure (altimeter):30.21 inches Hg (1023.1 mb) [Sea level pressure: 1023.4 mb]
Winds:from the NW (320 degrees) at 12 MPH (10 knots; 5.1 m/s)
Visibility:10 or more sm (16+ km)
Ceiling:3500 feet AGL
Clouds: overcast cloud deck at 3500 feet AGL
QC Flag:automated observation with no human augmentation; SOME DATA ABOVE MAY BE INACCURATE!!!"$" is an indication the sensor requires maintenance.